Fairfield Center, Indiana
Current Conditions -  °F | °C
As of 2:35 AM on Monday 22 Dec 2014 (Local Time) from KGWB Reporting Station
Haze Haze  
Wind Chill: 21°   Ceiling: Unl
Heat Index: 27°   Visibility: 5mi
Dew Point: 23°   Wind: 5mph
Humidity: 86%   Direction: 90°E
Pressure: 30.09"   Gusts: NA
Location:  41.4621°N, 85.1517°W
Report Text: KGWB 220735Z AUTO 09004KT 5SM BR CLR M03/M05 A3009 RMK AO2
Loading
Personal Weather Stations






























Interactive Weather Map New forecast layout! Learn more

10-Day Weather Forecast

Advertisements
Track Severe Weather on mobile